Time;durP1;ratioP1;P1;durP2;ratioP2;P2;SDS_P1;SDS_P2;PMS_P1;PMS_P2;Temp;Humidity;BMP_temperature;BMP_pressure;BME280_temperature;BME280_humidity;BME280_pressure;Samples;Min_cycle;Max_cycle;Signal;HPM_P1;HPM_P2
2022/01/20 00:01:42;;;;;;;19.27;8.77;;;2.40;99.90;;;;;;5114620;28;20047;-67
2022/01/20 00:04:17;;;;;;;16.10;7.53;;;2.50;99.90;;;;;;5114223;28;20577;-67
2022/01/20 00:09:42;;;;;;;18.27;8.67;;;2.40;99.90;;;;;;5114338;28;20047;-68
2022/01/20 00:23:29;;;;;;;14.93;7.10;;;2.40;99.90;;;;;;5113604;28;20165;-67
2022/01/20 00:26:01;;;;;;;14.67;7.50;;;2.40;99.90;;;;;;5113883;28;20098;-67
2022/01/20 00:28:39;;;;;;;17.20;7.70;;;2.40;99.90;;;;;;5113992;28;20051;-68
2022/01/20 00:31:14;;;;;;;14.87;6.53;;;2.40;99.90;;;;;;5112923;28;20052;-68
2022/01/20 00:33:45;;;;;;;16.57;7.67;;;2.40;99.90;;;;;;5113361;28;20553;-68
2022/01/20 00:38:58;;;;;;;13.73;7.23;;;2.40;99.90;;;;;;5113546;28;20108;-68
2022/01/20 00:41:25;;;;;;;14.40;6.63;;;2.50;99.90;;;;;;5113122;28;20138;-67
2022/01/20 00:43:52;;;;;;;15.10;7.50;;;2.50;99.90;;;;;;5113373;28;20142;-67
2022/01/20 00:46:19;;;;;;;12.80;7.53;;;2.50;99.90;;;;;;5113075;28;20131;-67
2022/01/20 00:48:46;;;;;;;13.87;6.50;;;2.50;99.90;;;;;;5113271;28;20492;-67
2022/01/20 00:51:13;;;;;;;15.03;7.43;;;2.50;99.90;;;;;;5113046;28;20127;-67
2022/01/20 00:53:44;;;;;;;11.60;5.87;;;2.60;99.90;;;;;;5113051;28;20101;-68
2022/01/20 00:56:12;;;;;;;13.53;7.10;;;2.60;99.90;;;;;;5112787;28;20051;-67
2022/01/20 00:58:40;;;;;;;12.87;6.50;;;2.60;99.90;;;;;;5112945;28;20047;-67
2022/01/20 01:01:07;;;;;;;12.90;6.63;;;2.60;99.90;;;;;;5113145;28;20071;-68
2022/01/20 01:03:34;;;;;;;11.73;5.80;;;2.60;99.90;;;;;;5112728;28;20419;-68
2022/01/20 01:06:05;;;;;;;15.00;7.23;;;2.60;99.90;;;;;;5112490;28;20142;-67
2022/01/20 01:08:32;;;;;;;13.60;6.67;;;2.60;99.90;;;;;;5112968;28;20047;-65
2022/01/20 01:10:59;;;;;;;13.47;6.77;;;2.60;99.90;;;;;;5113217;28;20146;-66
2022/01/20 01:13:28;;;;;;;13.10;6.97;;;2.60;99.90;;;;;;5112727;28;20138;-66
2022/01/20 01:15:55;;;;;;;14.97;7.73;;;2.60;99.90;;;;;;5112918;28;20051;-66
2022/01/20 01:21:15;;;;;;;12.90;6.97;;;2.70;99.90;;;;;;5112929;28;20117;-66
2022/01/20 01:23:44;;;;;;;14.60;6.80;;;2.70;99.90;;;;;;5112408;28;20048;-66
2022/01/20 01:26:13;;;;;;;13.40;7.03;;;2.70;99.90;;;;;;5112257;28;20138;-65
2022/01/20 01:28:42;;;;;;;13.30;6.63;;;2.70;99.90;;;;;;5112262;28;20079;-65
2022/01/20 01:31:32;;;;;;;12.00;6.70;;;2.70;99.90;;;;;;5112991;28;20564;-66
2022/01/20 01:34:02;;;;;;;12.60;6.60;;;2.80;99.90;;;;;;5112415;28;20101;-66
2022/01/20 01:36:39;;;;;;;10.27;5.53;;;2.80;99.90;;;;;;5112671;28;20527;-67
2022/01/20 01:39:06;;;;;;;10.87;6.27;;;2.80;99.90;;;;;;5112491;28;20481;-66
2022/01/20 01:41:36;;;;;;;13.07;6.47;;;2.80;99.90;;;;;;5112825;28;20126;-66
2022/01/20 01:44:09;;;;;;;9.90;5.63;;;2.80;99.90;;;;;;5111488;28;20063;-66
2022/01/20 01:46:37;;;;;;;12.90;6.73;;;2.80;99.90;;;;;;5112178;28;20142;-66
2022/01/20 01:49:05;;;;;;;12.03;6.00;;;2.80;99.90;;;;;;5112182;28;20491;-66
2022/01/20 01:51:32;;;;;;;13.43;6.37;;;2.90;99.90;;;;;;5112236;28;20090;-66
2022/01/20 01:53:58;;;;;;;10.87;6.00;;;2.90;99.90;;;;;;5112287;28;20142;-67
2022/01/20 01:56:25;;;;;;;10.10;5.50;;;2.90;99.90;;;;;;5112114;28;20127;-66
2022/01/20 01:58:54;;;;;;;10.77;5.87;;;2.90;99.90;;;;;;5112148;28;20517;-67
2022/01/20 02:01:25;;;;;;;11.47;5.73;;;2.90;99.90;;;;;;5112710;28;20047;-67
2022/01/20 02:03:59;;;;;;;9.13;5.57;;;2.90;99.90;;;;;;5112630;28;20054;-67
2022/01/20 02:06:51;;;;;;;9.60;5.40;;;2.90;99.90;;;;;;5111881;28;20146;-66
2022/01/20 02:09:33;;;;;;;11.83;6.53;;;2.90;99.90;;;;;;5112317;28;20056;-66
2022/01/20 02:17:54;;;;;;;11.10;6.07;;;2.90;99.90;;;;;;5112396;28;20059;-67
2022/01/20 02:20:22;;;;;;;;;;;2.90;99.90;;;;;;5112522;28;20051;-66
2022/01/20 02:22:50;;;;;;;9.67;5.20;;;3.00;99.90;;;;;;5111750;28;20022;-67
2022/01/20 02:25:21;;;;;;;10.73;5.57;;;3.00;99.90;;;;;;5112015;28;20051;-68
2022/01/20 02:27:48;;;;;;;11.53;6.07;;;3.00;99.90;;;;;;5111853;28;20048;-67
2022/01/20 02:30:16;;;;;;;9.83;5.40;;;3.00;99.90;;;;;;5112075;28;20138;-67
2022/01/20 02:32:51;;;;;;;10.40;5.23;;;3.00;99.90;;;;;;5111591;28;20053;-67
2022/01/20 02:35:17;;;;;;;11.30;5.97;;;3.00;99.90;;;;;;5111763;28;20048;-67
2022/01/20 02:37:47;;;;;;;9.03;5.27;;;3.00;99.90;;;;;;5112086;28;20126;-67
2022/01/20 02:44:47;;;;;;;8.63;4.83;;;3.00;99.90;;;;;;5111723;28;20055;-67
2022/01/20 02:46:05;;;;;;;10.27;5.43;;;2.90;99.90;;;;;;5079599;28;20085;-67
2022/01/20 02:48:32;;;;;;;9.50;5.70;;;3.00;99.90;;;;;;5111672;28;20058;-66
2022/01/20 02:50:59;;;;;;;8.97;4.80;;;3.00;99.90;;;;;;5111911;28;20111;-66
2022/01/20 02:53:28;;;;;;;9.80;5.03;;;3.00;99.90;;;;;;5111430;28;20138;-67
2022/01/20 02:55:55;;;;;;;10.33;5.23;;;3.00;99.90;;;;;;5114503;28;20134;-67
2022/01/20 02:58:22;;;;;;;9.03;4.97;;;3.00;99.90;;;;;;5115461;28;20048;-66
2022/01/20 03:00:49;;;;;;;9.50;4.93;;;3.00;99.90;;;;;;5115424;28;20135;-66
2022/01/20 03:03:16;;;;;;;8.83;5.10;;;2.90;99.90;;;;;;5115323;28;20043;-66
2022/01/20 03:05:43;;;;;;;10.37;5.40;;;2.90;99.90;;;;;;5114834;28;20055;-66
2022/01/20 03:08:10;;;;;;;8.17;4.83;;;2.90;99.90;;;;;;5115382;28;20074;-66
2022/01/20 03:10:39;;;;;;;7.97;4.40;;;3.00;99.90;;;;;;5115164;28;20127;-67
2022/01/20 03:13:06;;;;;;;8.73;4.87;;;2.90;99.90;;;;;;5115056;28;20104;-67
2022/01/20 03:15:36;;;;;;;7.90;4.43;;;2.90;99.90;;;;;;5114986;28;20047;-67
2022/01/20 03:18:03;;;;;;;8.23;4.40;;;3.00;99.90;;;;;;5115067;28;20134;-66
2022/01/20 03:20:32;;;;;;;7.63;4.30;;;3.00;99.90;;;;;;5115009;28;20484;-66
2022/01/20 03:22:59;;;;;;;7.07;4.13;;;3.00;99.90;;;;;;5114768;28;20083;-66
2022/01/20 03:25:26;;;;;;;6.70;2.93;;;3.00;99.90;;;;;;5114597;28;20048;-66
2022/01/20 03:27:54;;;;;;;7.00;3.70;;;3.00;99.90;;;;;;5114840;28;20047;-66
2022/01/20 03:30:22;;;;;;;11.80;5.00;;;3.00;99.90;;;;;;5115154;28;20136;-66
2022/01/20 03:32:50;;;;;;;6.57;3.80;;;3.00;99.90;;;;;;5115504;28;20051;-66
2022/01/20 03:35:17;;;;;;;8.87;4.27;;;3.00;99.90;;;;;;5114162;28;20135;-66
2022/01/20 03:37:44;;;;;;;6.90;3.93;;;3.00;99.90;;;;;;5115002;28;20138;-66
2022/01/20 03:40:12;;;;;;;8.13;4.43;;;3.00;99.90;;;;;;5114674;28;20134;-66
2022/01/20 03:42:39;;;;;;;10.03;5.33;;;3.00;99.90;;;;;;5114421;28;20134;-66
2022/01/20 03:45:08;;;;;;;7.17;3.67;;;3.00;99.90;;;;;;5114719;28;20130;-66
2022/01/20 03:47:35;;;;;;;11.37;5.50;;;2.90;99.90;;;;;;5114607;28;20419;-65
2022/01/20 03:50:59;;;;;;;8.87;5.03;;;2.90;99.90;;;;;;5114382;28;20083;-65
2022/01/20 03:52:58;;;;;;;8.53;4.97;;;2.90;99.90;;;;;;5113889;28;20071;-67
2022/01/20 03:55:25;;;;;;;9.80;4.93;;;2.90;99.90;;;;;;5114109;28;20131;-65
2022/01/20 03:57:52;;;;;;;9.43;4.97;;;2.80;99.90;;;;;;5129296;22;20046;-68
2022/01/20 04:00:20;;;;;;;9.53;4.63;;;2.80;99.90;;;;;;5114090;28;20134;-67
2022/01/20 04:02:47;;;;;;;9.07;5.30;;;2.80;99.90;;;;;;5113923;28;20403;-67
2022/01/20 04:05:14;;;;;;;9.00;5.13;;;2.70;99.90;;;;;;5113792;28;20059;-68
2022/01/20 04:07:41;;;;;;;10.23;5.63;;;2.70;99.90;;;;;;5113182;28;20138;-68
2022/01/20 04:10:08;;;;;;;10.93;5.77;;;2.70;99.90;;;;;;5113858;28;20126;-68
2022/01/20 04:12:35;;;;;;;12.00;6.03;;;2.80;99.90;;;;;;5113636;28;20127;-67
2022/01/20 04:15:07;;;;;;;9.77;5.23;;;2.70;99.90;;;;;;5113764;28;20410;-67
2022/01/20 04:17:40;;;;;;;9.90;5.30;;;2.70;99.90;;;;;;5114605;28;20061;-67
2022/01/20 04:20:08;;;;;;;11.57;6.37;;;2.70;99.90;;;;;;5114232;28;20055;-67
2022/01/20 04:22:36;;;;;;;10.43;5.13;;;2.70;99.90;;;;;;5113583;28;20122;-67
2022/01/20 04:25:03;;;;;;;9.43;5.30;;;2.70;99.90;;;;;;5113621;28;20470;-67
2022/01/20 04:27:30;;;;;;;10.87;5.80;;;2.70;99.90;;;;;;5113604;28;20135;-67
2022/01/20 04:29:57;;;;;;;8.23;5.03;;;2.70;99.90;;;;;;5113415;28;20138;-67
2022/01/20 04:32:24;;;;;;;9.10;5.27;;;2.60;99.90;;;;;;5113328;28;20135;-67
2022/01/20 04:34:53;;;;;;;11.37;5.00;;;2.60;99.90;;;;;;5113431;28;20051;-67
2022/01/20 04:37:20;;;;;;;10.87;5.43;;;2.50;99.90;;;;;;5113421;28;20094;-67
2022/01/20 04:39:49;;;;;;;12.77;5.93;;;2.50;99.90;;;;;;5113506;28;20126;-67
2022/01/20 04:42:18;;;;;;;13.37;6.50;;;2.40;99.90;;;;;;5113119;28;20078;-67
2022/01/20 04:44:49;;;;;;;13.97;6.30;;;2.40;99.90;;;;;;5113056;28;20087;-67
2022/01/20 04:47:27;;;;;;;13.03;5.90;;;2.30;99.90;;;;;;5113676;28;20099;-67
2022/01/20 04:58:08;;;;;;;10.30;5.67;;;2.40;99.90;;;;;;5112853;28;20120;-67
2022/01/20 05:00:35;;;;;;;13.70;5.47;;;2.40;99.90;;;;;;5113016;28;20108;-67
2022/01/20 05:03:04;;;;;;;14.10;5.17;;;2.30;99.90;;;;;;5112663;28;20138;-67
2022/01/20 05:05:33;;;;;;;13.30;6.13;;;2.30;99.90;;;;;;5112978;28;20066;-67
2022/01/20 05:08:00;;;;;;;16.83;6.33;;;2.30;99.90;;;;;;5113282;28;20147;-67
2022/01/20 05:10:30;;;;;;;14.57;5.50;;;2.30;99.90;;;;;;5112904;28;20139;-67
2022/01/20 05:13:11;;;;;;;13.30;5.43;;;2.30;99.90;;;;;;5112760;28;20136;-67
2022/01/20 05:15:39;;;;;;;13.80;5.17;;;2.40;99.90;;;;;;5112945;28;20411;-67
2022/01/20 05:18:08;;;;;;;10.17;5.53;;;2.50;99.90;;;;;;5112402;28;20079;-67
2022/01/20 05:20:36;;;;;;;16.40;5.23;;;2.40;99.90;;;;;;5113082;28;20043;-67
2022/01/20 05:23:03;;;;;;;9.20;5.03;;;2.30;99.90;;;;;;5112093;28;20480;-67
2022/01/20 05:25:30;;;;;;;9.73;3.80;;;2.40;99.90;;;;;;5112542;28;20139;-67
2022/01/20 05:27:57;;;;;;;14.37;5.90;;;2.50;99.90;;;;;;5112573;28;20130;-67
2022/01/20 05:30:24;;;;;;;12.20;5.77;;;2.40;99.90;;;;;;5112797;28;20083;-67
2022/01/20 05:32:51;;;;;;;13.43;5.37;;;2.40;99.90;;;;;;5112266;28;20132;-67
2022/01/20 05:35:18;;;;;;;13.00;4.93;;;2.50;99.90;;;;;;5112885;28;20134;-67
2022/01/20 05:37:46;;;;;;;13.60;5.27;;;2.50;99.90;;;;;;5112522;28;20134;-67
2022/01/20 05:40:13;;;;;;;10.90;4.60;;;2.50;99.90;;;;;;5112262;28;20126;-67
2022/01/20 05:42:40;;;;;;;13.03;4.70;;;2.60;99.90;;;;;;5112649;28;20138;-67
2022/01/20 05:45:08;;;;;;;12.47;4.83;;;2.70;99.90;;;;;;5112278;28;20082;-67
2022/01/20 05:47:42;;;;;;;12.33;4.10;;;2.70;99.90;;;;;;5112731;28;20130;-67
2022/01/20 05:50:09;;;;;;;16.93;5.43;;;2.70;99.90;;;;;;5112013;28;20619;-67
2022/01/20 05:52:41;;;;;;;17.77;6.20;;;2.70;99.90;;;;;;5112072;28;20130;-67
2022/01/20 05:55:12;;;;;;;12.90;4.80;;;2.70;99.90;;;;;;5112693;28;20070;-67
2022/01/20 05:57:40;;;;;;;18.73;5.07;;;2.70;99.90;;;;;;5112120;28;20131;-67
2022/01/20 06:00:11;;;;;;;17.27;6.83;;;2.80;99.90;;;;;;5112209;28;20503;-67
2022/01/20 06:03:36;;;;;;;14.67;5.60;;;2.80;99.90;;;;;;5112237;28;20129;-67
2022/01/20 06:05:25;;;;;;;17.80;5.38;;;2.80;99.90;;;;;;5111822;28;20052;-67
2022/01/20 06:07:52;;;;;;;14.10;5.00;;;2.80;99.90;;;;;;5112174;28;20139;-68
2022/01/20 06:10:20;;;;;;;17.53;4.60;;;2.80;99.90;;;;;;5112067;28;20135;-68
2022/01/20 06:12:47;;;;;;;19.73;5.53;;;2.80;99.90;;;;;;5112285;28;20142;-68
2022/01/20 06:15:14;;;;;;;13.67;4.67;;;2.80;99.90;;;;;;5111909;28;20138;-68
2022/01/20 06:17:42;;;;;;;14.33;4.50;;;2.80;99.90;;;;;;5111889;28;20139;-68
2022/01/20 06:20:11;;;;;;;15.37;4.30;;;2.80;99.90;;;;;;5112027;28;20521;-68
2022/01/20 06:22:38;;;;;;;20.30;5.93;;;2.90;99.90;;;;;;5111947;28;20134;-68
2022/01/20 06:25:07;;;;;;;12.03;4.63;;;2.70;99.90;;;;;;5111999;28;20494;-68
2022/01/20 06:27:36;;;;;;;13.90;4.50;;;2.70;99.90;;;;;;5111894;28;20126;-68
2022/01/20 06:30:04;;;;;;;11.33;4.37;;;2.80;99.90;;;;;;5114067;28;20055;-68
2022/01/20 06:32:32;;;;;;;14.17;4.67;;;2.80;99.90;;;;;;5116142;28;20139;-68
2022/01/20 06:34:58;;;;;;;20.03;5.83;;;2.80;99.90;;;;;;5115753;28;20134;-68
2022/01/20 06:37:25;;;;;;;23.27;5.10;;;2.80;99.90;;;;;;5115732;28;20135;-68
2022/01/20 06:39:52;;;;;;;16.20;5.53;;;2.90;99.90;;;;;;5116001;28;20562;-68
2022/01/20 06:42:19;;;;;;;17.67;4.63;;;2.80;99.90;;;;;;5115552;28;20083;-68
2022/01/20 06:44:48;;;;;;;15.27;4.67;;;2.90;99.90;;;;;;5115498;28;20138;-68
2022/01/20 06:47:15;;;;;;;17.00;5.50;;;2.80;99.90;;;;;;5115748;28;20134;-68
2022/01/20 06:49:42;;;;;;;14.37;5.57;;;2.80;99.90;;;;;;5115347;28;20150;-68
2022/01/20 06:52:09;;;;;;;17.90;5.17;;;2.80;99.90;;;;;;5115301;28;20124;-68
2022/01/20 06:54:35;;;;;;;16.43;5.90;;;2.80;99.90;;;;;;5115412;28;20547;-68
2022/01/20 06:57:03;;;;;;;19.43;5.93;;;2.80;99.90;;;;;;5115426;28;20043;-68
2022/01/20 06:59:30;;;;;;;13.13;4.70;;;2.80;99.90;;;;;;5115442;28;20134;-68
2022/01/20 07:01:58;;;;;;;18.07;5.60;;;2.90;99.90;;;;;;5114987;28;20147;-68
2022/01/20 07:04:26;;;;;;;17.70;4.87;;;2.80;99.90;;;;;;5115059;28;20058;-69
2022/01/20 07:06:53;;;;;;;15.87;6.33;;;2.80;99.90;;;;;;5115317;28;20051;-69
2022/01/20 07:09:20;;;;;;;19.13;5.87;;;2.70;99.90;;;;;;5115053;28;20043;-69
2022/01/20 07:11:47;;;;;;;18.10;5.70;;;2.70;99.90;;;;;;5115041;28;20131;-69
2022/01/20 07:14:14;;;;;;;15.20;5.07;;;2.70;99.90;;;;;;5114975;28;20139;-69
2022/01/20 07:16:41;;;;;;;25.23;6.47;;;2.70;99.90;;;;;;5114848;28;20127;-69
2022/01/20 07:19:09;;;;;;;22.20;5.97;;;2.70;99.90;;;;;;5114879;28;20134;-69
2022/01/20 07:21:36;;;;;;;17.87;5.67;;;2.70;99.90;;;;;;5115201;28;20130;-69
2022/01/20 07:24:04;;;;;;;15.10;5.27;;;2.70;99.90;;;;;;5114925;28;20087;-69
2022/01/20 07:26:30;;;;;;;19.63;5.77;;;2.70;99.90;;;;;;5114817;28;20131;-69
2022/01/20 07:28:57;;;;;;;25.10;5.67;;;2.70;99.90;;;;;;5114808;28;20048;-69
2022/01/20 07:31:24;;;;;;;16.17;5.47;;;2.70;99.90;;;;;;5114916;28;20559;-69
2022/01/20 07:33:51;;;;;;;19.70;5.30;;;2.70;99.90;;;;;;5114603;28;20586;-69
2022/01/20 07:36:20;;;;;;;20.03;5.90;;;2.70;99.90;;;;;;5114710;28;20143;-69
2022/01/20 07:38:54;;;;;;;20.87;6.47;;;2.70;99.90;;;;;;5114498;28;20130;-69
2022/01/20 07:41:21;;;;;;;19.63;5.60;;;2.80;99.90;;;;;;5114664;28;20043;-69
2022/01/20 07:43:48;;;;;;;13.93;4.70;;;2.80;99.90;;;;;;5114581;28;20135;-69
2022/01/20 07:46:15;;;;;;;14.57;4.53;;;2.70;99.90;;;;;;5114953;28;20051;-69
2022/01/20 07:48:42;;;;;;;26.27;6.43;;;2.90;99.90;;;;;;5114632;28;20590;-70
2022/01/20 07:51:09;;;;;;;20.57;5.90;;;2.90;99.90;;;;;;5114749;28;20564;-70
2022/01/20 07:53:38;;;;;;;18.30;4.30;;;2.90;99.90;;;;;;5114715;28;20142;-70
2022/01/20 07:56:06;;;;;;;11.80;4.87;;;2.90;99.90;;;;;;5114560;28;20078;-70
2022/01/20 07:58:33;;;;;;;18.17;4.63;;;2.90;99.90;;;;;;5114682;28;20054;-70
2022/01/20 08:01:01;;;;;;;20.77;5.43;;;3.00;99.90;;;;;;5114427;28;20130;-70
2022/01/20 08:03:28;;;;;;;18.53;4.60;;;2.90;99.90;;;;;;5114418;28;20139;-70
2022/01/20 08:05:55;;;;;;;18.43;4.97;;;3.00;99.90;;;;;;5114187;28;20094;-69
2022/01/20 08:08:22;;;;;;;20.27;4.73;;;3.10;99.90;;;;;;5114478;28;20101;-69
2022/01/20 08:10:50;;;;;;;19.33;4.87;;;3.10;99.90;;;;;;5114183;28;20130;-69
2022/01/20 08:13:17;;;;;;;20.57;4.33;;;3.20;99.90;;;;;;5114383;28;20043;-69
2022/01/20 08:15:45;;;;;;;20.93;5.10;;;3.20;99.90;;;;;;5114037;28;20139;-68
2022/01/20 08:18:12;;;;;;;13.70;4.80;;;3.20;99.90;;;;;;5114147;28;20055;-68
2022/01/20 08:20:39;;;;;;;15.23;4.30;;;3.30;99.90;;;;;;5114261;28;20075;-67
2022/01/20 08:23:06;;;;;;;18.37;4.63;;;3.40;99.90;;;;;;5113816;28;20048;-67
2022/01/20 08:25:34;;;;;;;23.60;4.13;;;3.40;99.90;;;;;;5113645;28;20058;-68
2022/01/20 08:28:03;;;;;;;14.87;4.63;;;3.40;99.90;;;;;;5113869;28;20048;-68
2022/01/20 08:30:30;;;;;;;11.27;3.47;;;3.50;99.90;;;;;;5113673;28;20135;-68
2022/01/20 08:32:59;;;;;;;17.73;3.80;;;3.50;99.90;;;;;;5113462;28;20139;-68
2022/01/20 08:35:31;;;;;;;14.40;4.60;;;3.60;99.90;;;;;;5113953;28;20054;-69
2022/01/20 08:37:59;;;;;;;14.57;4.67;;;4.10;99.90;;;;;;5113362;28;20047;-69
2022/01/20 08:40:27;;;;;;;16.83;3.87;;;4.30;99.90;;;;;;5113581;28;20047;-69
2022/01/20 08:42:56;;;;;;;13.17;3.10;;;4.00;99.90;;;;;;5113133;28;20126;-69
2022/01/20 08:45:28;;;;;;;24.80;5.10;;;3.90;99.90;;;;;;5113185;28;20043;-69
2022/01/20 08:47:56;;;;;;;17.37;3.40;;;3.90;99.90;;;;;;5113236;28;20586;-69
2022/01/20 08:50:25;;;;;;;12.57;4.13;;;4.00;99.90;;;;;;5113203;28;20491;-69
2022/01/20 08:52:52;;;;;;;11.57;3.53;;;4.20;99.90;;;;;;5112641;28;20138;-69
2022/01/20 08:55:20;;;;;;;11.20;3.63;;;4.20;99.90;;;;;;5112859;28;20131;-69
2022/01/20 08:57:47;;;;;;;12.47;3.47;;;4.40;99.90;;;;;;5112949;28;20083;-69
2022/01/20 09:00:16;;;;;;;15.97;4.17;;;4.30;99.90;;;;;;5112741;28;20570;-69
2022/01/20 09:02:44;;;;;;;13.03;3.13;;;4.20;99.90;;;;;;5113081;28;20142;-69
2022/01/20 09:05:11;;;;;;;15.03;3.50;;;4.10;99.90;;;;;;5112666;28;20043;-69
2022/01/20 09:07:38;;;;;;;15.20;3.50;;;4.10;99.90;;;;;;5113036;28;20131;-69
2022/01/20 09:10:07;;;;;;;16.73;4.07;;;4.00;99.90;;;;;;5113136;28;20134;-69
2022/01/20 09:15:28;;;;;;;14.27;3.50;;;3.90;99.90;;;;;;5112728;28;20053;-69
2022/01/20 09:17:59;;;;;;;8.43;2.50;;;4.00;99.90;;;;;;5112880;28;20058;-69
2022/01/20 09:20:26;;;;;;;12.80;3.97;;;4.10;99.90;;;;;;5112898;28;20507;-69
2022/01/20 09:22:55;;;;;;;15.53;3.37;;;4.30;99.90;;;;;;5112752;28;20525;-69
2022/01/20 09:25:22;;;;;;;13.30;4.57;;;4.20;99.90;;;;;;5113204;28;20047;-69
2022/01/20 09:27:51;;;;;;;11.80;3.80;;;4.20;99.90;;;;;;5113128;28;20126;-69
2022/01/20 09:30:22;;;;;;;11.90;3.63;;;4.50;99.90;;;;;;5113123;28;20427;-69
2022/01/20 09:32:58;;;;;;;13.00;2.90;;;5.10;99.90;;;;;;5113229;28;20055;-69
2022/01/20 09:35:30;;;;;;;11.57;2.85;;;4.90;99.90;;;;;;5113048;28;20047;-69
2022/01/20 09:37:57;;;;;;;10.15;2.45;;;5.10;99.90;;;;;;5113094;28;20055;-69
2022/01/20 09:40:24;;;;;;;7.20;1.80;;;4.60;99.90;;;;;;5112867;28;20054;-69
2022/01/20 09:42:51;;;;;;;8.70;1.80;;;3.60;99.90;;;;;;5112609;28;20103;-69
2022/01/20 09:45:18;;;;;;;5.47;1.70;;;2.80;99.90;;;;;;5112455;28;20142;-69
2022/01/20 09:47:46;;;;;;;7.80;1.40;;;2.60;99.90;;;;;;5112622;28;20086;-69
2022/01/20 09:50:15;;;;;;;7.67;1.50;;;2.40;99.90;;;;;;5113015;28;20236;-69
2022/01/20 09:52:43;;;;;;;7.90;2.53;;;2.00;99.90;;;;;;5113125;28;20090;-69
2022/01/20 09:55:11;;;;;;;6.17;1.47;;;1.80;99.90;;;;;;5113240;28;20122;-69
2022/01/20 10:00:17;;;;;;;9.70;1.73;;;1.70;99.90;;;;;;5132615;22;20452;-74
2022/01/20 10:02:56;;;;;;;5.67;1.33;;;1.60;99.90;;;;;;5115511;28;20123;-73
2022/01/20 10:05:28;;;;;;;13.07;1.83;;;1.60;99.90;;;;;;5117723;28;20047;-76
2022/01/20 10:08:01;;;;;;;7.50;1.30;;;1.60;99.90;;;;;;5119565;28;20079;-75
2022/01/20 10:10:38;;;;;;;6.60;1.73;;;1.70;99.90;;;;;;5119237;28;20094;-74
2022/01/20 10:13:05;;;;;;;10.65;2.30;;;1.70;99.90;;;;;;5120254;28;20047;-76
2022/01/20 10:15:32;;;;;;;11.30;1.73;;;1.70;99.90;;;;;;5119541;28;20090;-77
2022/01/20 10:18:09;;;;;;;8.70;1.67;;;1.70;99.90;;;;;;5117575;28;20075;-76
2022/01/20 10:20:37;;;;;;;15.60;3.38;;;1.90;99.90;;;;;;5117031;28;20119;-75
2022/01/20 10:23:05;;;;;;;6.83;1.50;;;1.80;99.90;;;;;;5116554;28;20508;-76
2022/01/20 10:25:36;;;;;;;15.90;1.50;;;1.80;99.90;;;;;;5116712;28;20189;-76
2022/01/20 10:28:03;;;;;;;7.50;1.40;;;1.70;99.90;;;;;;5117479;28;20054;-76
2022/01/20 10:30:34;;;;;;;13.20;2.20;;;1.60;99.90;;;;;;5117053;28;20047;-76
2022/01/20 10:33:02;;;;;;;8.37;1.53;;;1.60;99.90;;;;;;5117498;28;20055;-76
2022/01/20 10:35:33;;;;;;;9.40;1.97;;;1.60;99.90;;;;;;5117290;28;20476;-76
2022/01/20 10:38:11;;;;;;;11.70;2.23;;;1.70;99.90;;;;;;5118154;28;20083;-76
2022/01/20 10:40:49;;;;;;;12.73;2.30;;;1.70;99.90;;;;;;5117728;28;20051;-76
2022/01/20 10:43:23;;;;;;;11.70;2.83;;;1.50;99.90;;;;;;5117494;28;20055;-76
2022/01/20 10:46:01;;;;;;;10.70;1.87;;;1.60;99.90;;;;;;5116692;28;20082;-76
2022/01/20 10:48:28;;;;;;;9.57;2.10;;;2.00;99.90;;;;;;5118384;28;20460;-76
2022/01/20 10:50:54;;;;;;;11.03;1.80;;;2.20;99.90;;;;;;5117210;28;20073;-76
2022/01/20 10:53:23;;;;;;;11.40;2.23;;;2.40;99.90;;;;;;5118608;28;20043;-76
2022/01/20 10:55:52;;;;;;;7.60;2.63;;;2.70;99.90;;;;;;5120773;28;20051;-75
2022/01/20 10:58:22;;;;;;;8.10;2.20;;;3.50;99.90;;;;;;5118610;28;20044;-77
2022/01/20 11:00:51;;;;;;;11.80;1.70;;;4.00;99.90;;;;;;5120427;28;20052;-75
2022/01/20 11:03:18;;;;;;;10.20;2.00;;;7.20;99.90;;;;;;5120121;28;20074;-76
2022/01/20 11:05:50;;;;;;;8.07;2.17;;;5.60;99.90;;;;;;5120555;28;20071;-76
2022/01/20 11:08:17;;;;;;;9.52;2.17;;;7.00;99.90;;;;;;5118143;27;20491;-76
2022/01/20 11:10:45;;;;;;;9.13;1.40;;;8.70;99.90;;;;;;5119021;28;20130;-76
2022/01/20 11:13:16;;;;;;;13.98;2.60;;;9.70;99.90;;;;;;5121247;28;20085;-76
2022/01/20 11:15:44;;;;;;;8.43;1.92;;;9.20;99.90;;;;;;5119401;28;20043;-76
2022/01/20 11:18:11;;;;;;;13.93;1.98;;;9.80;99.90;;;;;;5118824;28;20091;-76
2022/01/20 11:20:42;;;;;;;13.45;2.65;;;6.30;99.90;;;;;;5118661;28;20067;-76
2022/01/20 11:23:09;;;;;;;12.68;2.03;;;6.50;99.90;;;;;;5118800;28;20127;-75
2022/01/20 11:25:39;;;;;;;7.95;1.75;;;6.20;99.90;;;;;;5118720;28;20519;-76
2022/01/20 11:28:08;;;;;;;12.45;2.70;;;6.50;99.90;;;;;;5119422;28;20094;-76
2022/01/20 11:30:40;;;;;;;9.07;1.77;;;5.90;99.90;;;;;;5119761;28;20515;-77
2022/01/20 11:33:09;;;;;;;11.73;1.95;;;5.70;99.90;;;;;;5118584;28;20083;-76
2022/01/20 11:35:42;;;;;;;12.93;1.75;;;6.10;99.90;;;;;;5118469;28;20060;-75
2022/01/20 11:38:11;;;;;;;15.77;2.80;;;8.10;99.90;;;;;;5118148;28;20126;-76
2022/01/20 11:40:53;;;;;;;12.32;2.10;;;6.00;99.90;;;;;;5118818;28;20044;-77
2022/01/20 11:43:33;;;;;;;20.98;2.03;;;5.10;99.90;;;;;;5118603;28;20078;-76
2022/01/20 11:46:11;;;;;;;11.02;1.52;;;4.70;99.90;;;;;;5117636;28;20039;-75
2022/01/20 11:48:50;;;;;;;14.00;2.30;;;4.30;99.90;;;;;;5117484;28;20056;-76
2022/01/20 11:51:18;;;;;;;9.02;1.58;;;4.00;99.90;;;;;;5117907;28;20098;-75
2022/01/20 11:53:59;;;;;;;8.38;1.25;;;4.00;99.90;;;;;;5118780;28;20101;-75
2022/01/20 11:56:32;;;;;;;12.70;1.92;;;4.20;99.90;;;;;;5118209;28;20047;-75
2022/01/20 11:58:58;;;;;;;9.00;1.23;;;4.20;99.90;;;;;;5117284;28;20525;-75
2022/01/20 12:01:30;;;;;;;12.35;2.25;;;4.30;99.90;;;;;;5121225;28;20140;-75
2022/01/20 12:03:57;;;;;;;12.75;2.15;;;6.10;99.90;;;;;;5117955;28;20092;-80
2022/01/20 12:06:26;;;;;;;9.38;1.70;;;6.10;99.90;;;;;;5117293;28;20497;-77
2022/01/20 12:08:55;;;;;;;12.65;2.13;;;8.30;99.90;;;;;;5116700;28;20105;-77
2022/01/20 12:11:22;;;;;;;9.70;1.65;;;9.00;99.90;;;;;;5116927;28;20510;-75
2022/01/20 12:13:51;;;;;;;12.18;1.63;;;8.20;99.90;;;;;;5118168;28;20055;-76
2022/01/20 12:16:19;;;;;;;9.45;2.00;;;9.90;99.90;;;;;;5118650;28;20054;-76
2022/01/20 12:18:52;;;;;;;11.98;1.65;;;10.00;99.90;;;;;;5116483;28;20048;-75
2022/01/20 12:21:19;;;;;;;11.65;2.10;;;9.30;99.90;;;;;;5116459;28;20074;-76
2022/01/20 12:23:48;;;;;;;7.88;1.88;;;9.10;99.90;;;;;;5116191;28;20522;-76
2022/01/20 12:26:15;;;;;;;11.07;1.77;;;8.40;99.90;;;;;;5115904;28;20055;-76
2022/01/20 12:28:42;;;;;;;9.73;2.55;;;8.90;99.90;;;;;;5118157;28;20083;-76
2022/01/20 12:31:12;;;;;;;6.72;1.60;;;8.10;99.90;;;;;;5117097;28;20147;-75
2022/01/20 12:33:44;;;;;;;8.55;1.90;;;8.10;99.90;;;;;;5117621;28;20052;-74
2022/01/20 12:36:14;;;;;;;8.15;1.75;;;6.70;99.90;;;;;;5118396;28;20086;-74
2022/01/20 12:38:42;;;;;;;10.48;2.60;;;5.50;99.90;;;;;;5118389;28;20075;-75
2022/01/20 12:41:11;;;;;;;9.85;1.90;;;4.80;99.90;;;;;;5118856;28;20067;-74
2022/01/20 12:43:41;;;;;;;8.32;1.48;;;4.40;99.90;;;;;;5118241;28;20047;-75
2022/01/20 12:46:10;;;;;;;10.63;2.10;;;4.30;99.90;;;;;;5117761;28;20068;-75
2022/01/20 12:48:39;;;;;;;8.05;2.00;;;5.10;99.90;;;;;;5117719;28;20048;-74
2022/01/20 12:51:08;;;;;;;7.65;1.30;;;4.90;99.90;;;;;;5117212;28;20471;-75
2022/01/20 12:53:43;;;;;;;11.00;1.60;;;4.50;99.90;;;;;;5117551;28;20119;-74
2022/01/20 12:56:12;;;;;;;9.35;1.20;;;6.50;99.90;;;;;;5117825;28;20048;-74
2022/01/20 12:58:51;;;;;;;6.10;1.10;;;7.30;99.90;;;;;;5117079;28;20086;-74
2022/01/20 13:01:18;;;;;;;5.88;1.30;;;5.60;99.90;;;;;;5117620;28;20511;-73
2022/01/20 13:03:45;;;;;;;5.55;1.30;;;4.40;99.90;;;;;;5117073;28;20126;-74
2022/01/20 13:06:22;;;;;;;7.47;1.70;;;3.90;99.90;;;;;;5116868;28;20108;-74
2022/01/20 13:09:05;;;;;;;5.40;0.88;;;3.70;99.90;;;;;;5116460;28;20499;-74
2022/01/20 13:11:38;;;;;;;7.53;1.17;;;3.60;99.90;;;;;;5116975;28;20052;-74
2022/01/20 13:14:05;;;;;;;5.23;1.27;;;3.40;99.90;;;;;;5116545;28;20112;-73
2022/01/20 13:16:33;;;;;;;8.23;1.50;;;3.30;99.90;;;;;;5115569;28;20102;-74
2022/01/20 13:19:02;;;;;;;8.33;1.33;;;3.30;99.90;;;;;;5115348;28;20093;-74
2022/01/20 13:21:37;;;;;;;12.27;2.30;;;3.30;99.90;;;;;;5114611;28;20086;-73
2022/01/20 13:24:07;;;;;;;12.30;1.60;;;3.30;99.90;;;;;;5113226;28;20043;-74
2022/01/20 13:26:45;;;;;;;5.27;1.43;;;3.40;99.90;;;;;;5113168;28;20510;-74
2022/01/20 13:29:12;;;;;;;12.90;1.60;;;3.50;99.90;;;;;;5113877;28;20085;-75
2022/01/20 13:31:40;;;;;;;8.50;1.30;;;5.10;99.90;;;;;;5114203;28;20054;-75
2022/01/20 13:34:09;;;;;;;7.43;1.70;;;4.40;99.90;;;;;;5114730;28;20127;-75
2022/01/20 13:36:38;;;;;;;11.37;2.40;;;3.70;99.90;;;;;;5113988;28;20081;-74
2022/01/20 13:39:38;;;;;;;7.33;1.57;;;3.40;99.90;;;;;;5114211;28;20051;-74
2022/01/20 13:42:09;;;;;;;7.37;1.30;;;3.30;99.90;;;;;;5113421;28;20100;-74
2022/01/20 13:47:21;;;;;;;4.53;0.90;;;3.40;99.90;;;;;;5113246;28;20055;-75